Time;durP1;ratioP1;P1;durP2;ratioP2;P2;SDS_P1;SDS_P2;PMS_P1;PMS_P2;Temp;Humidity;BMP_temperature;BMP_pressure;BME280_temperature;BME280_humidity;BME280_pressure;Samples;Min_cycle;Max_cycle;Signal;HPM_P1;HPM_P2
2023/01/21 00:02:10;;;;;;;26.58;13.40;;;;;;;;;;6183883;23;20005;-85
2023/01/21 00:04:36;;;;;;;28.95;14.32;;;;;;;;;;6184046;23;20009;-85
2023/01/21 00:07:03;;;;;;;28.30;13.80;;;;;;;;;;6183995;23;20064;-84
2023/01/21 00:09:28;;;;;;;25.35;13.02;;;;;;;;;;6184419;23;19997;-85
2023/01/21 00:11:54;;;;;;;29.42;14.23;;;;;;;;;;6182210;23;20005;-86
2023/01/21 00:14:19;;;;;;;25.08;13.73;;;;;;;;;;6181299;23;20012;-86
2023/01/21 00:16:45;;;;;;;27.23;13.70;;;;;;;;;;6190484;23;20028;-85
2023/01/21 00:19:10;;;;;;;27.95;14.30;;;;;;;;;;6184907;23;20001;-85
2023/01/21 00:21:35;;;;;;;29.58;14.45;;;;;;;;;;6133164;23;20009;-87
2023/01/21 00:24:01;;;;;;;32.47;16.75;;;;;;;;;;6183390;23;20399;-85
2023/01/21 00:26:26;;;;;;;29.10;15.95;;;;;;;;;;6183690;23;20009;-85
2023/01/21 00:28:52;;;;;;;30.65;14.50;;;;;;;;;;6182196;23;20001;-85
2023/01/21 00:31:17;;;;;;;34.30;16.08;;;;;;;;;;6184008;23;20084;-85
2023/01/21 00:33:43;;;;;;;37.40;15.85;;;;;;;;;;6186009;23;20005;-85
2023/01/21 00:36:12;;;;;;;31.17;15.43;;;;;;;;;;6163172;23;20421;-84
2023/01/21 00:38:38;;;;;;;36.72;16.08;;;;;;;;;;6186240;23;20033;-85
2023/01/21 00:41:06;;;;;;;30.00;15.10;;;;;;;;;;6159073;23;20391;-86
2023/01/21 00:43:32;;;;;;;29.88;14.65;;;;;;;;;;6185272;23;20393;-85
2023/01/21 00:45:57;;;;;;;30.95;15.63;;;;;;;;;;6185787;23;20005;-85
2023/01/21 00:48:23;;;;;;;32.30;14.68;;;;;;;;;;6184007;23;20008;-85
2023/01/21 00:50:50;;;;;;;28.88;14.43;;;;;;;;;;6184179;23;20009;-87
2023/01/21 00:53:19;;;;;;;31.73;15.25;;;;;;;;;;6185265;23;19997;-85
2023/01/21 00:55:44;;;;;;;30.30;15.70;;;;;;;;;;6191724;23;20008;-84
2023/01/21 00:58:10;;;;;;;33.28;14.77;;;;;;;;;;6188642;23;20033;-86
2023/01/21 01:00:36;;;;;;;31.45;14.73;;;;;;;;;;6183698;23;20008;-85
2023/01/21 01:03:01;;;;;;;28.30;13.95;;;;;;;;;;6185393;23;20079;-86
2023/01/21 01:05:26;;;;;;;29.92;14.43;;;;;;;;;;6185373;23;20009;-86
2023/01/21 01:07:52;;;;;;;30.35;15.93;;;;;;;;;;6185261;23;20001;-86
2023/01/21 01:10:17;;;;;;;35.90;16.48;;;;;;;;;;6159294;23;20001;-87
2023/01/21 01:12:43;;;;;;;35.53;18.65;;;;;;;;;;6183633;23;20083;-87
2023/01/21 01:15:09;;;;;;;34.15;16.33;;;;;;;;;;6187705;23;20052;-86
2023/01/21 01:17:34;;;;;;;36.33;17.17;;;;;;;;;;6189140;23;20005;-84
2023/01/21 01:19:59;;;;;;;34.28;16.02;;;;;;;;;;6183729;23;20159;-84
2023/01/21 01:22:25;;;;;;;33.30;15.45;;;;;;;;;;6185127;23;20001;-85
2023/01/21 01:24:50;;;;;;;32.67;15.75;;;;;;;;;;6185661;23;20392;-87
2023/01/21 01:27:16;;;;;;;34.08;16.73;;;;;;;;;;6183476;23;20433;-85
2023/01/21 01:29:41;;;;;;;37.20;16.52;;;;;;;;;;6183319;23;20391;-84
2023/01/21 01:32:06;;;;;;;33.63;17.73;;;;;;;;;;6185601;23;20344;-86
2023/01/21 01:34:32;;;;;;;36.60;16.58;;;;;;;;;;6160461;23;20001;-85
2023/01/21 01:36:58;;;;;;;32.42;15.80;;;;;;;;;;6189019;23;20371;-84
2023/01/21 01:39:23;;;;;;;34.88;16.65;;;;;;;;;;6196972;23;19997;-83
2023/01/21 01:41:49;;;;;;;29.63;14.23;;;;;;;;;;6190969;23;20056;-86
2023/01/21 01:44:52;;;;;;;28.17;14.13;;;;;;;;;;6197261;23;20004;-84
2023/01/21 01:47:18;;;;;;;33.60;14.88;;;;;;;;;;6194843;23;20005;-87
2023/01/21 01:49:43;;;;;;;30.50;14.80;;;;;;;;;;6183827;23;20085;-86
2023/01/21 01:52:09;;;;;;;29.40;14.30;;;;;;;;;;6159139;23;20379;-83
2023/01/21 01:54:37;;;;;;;29.77;15.02;;;;;;;;;;6192137;23;20001;-83
2023/01/21 01:57:04;;;;;;;30.90;14.77;;;;;;;;;;6165162;23;20001;-86
2023/01/21 01:59:29;;;;;;;27.13;14.50;;;;;;;;;;6164607;23;20001;-86
2023/01/21 02:01:59;;;;;;;29.38;14.95;;;;;;;;;;6146995;23;20440;-85
2023/01/21 02:04:26;;;;;;;29.67;14.80;;;;;;;;;;6163503;23;20116;-85
2023/01/21 02:06:51;;;;;;;29.05;14.73;;;;;;;;;;6202217;23;20004;-82
2023/01/21 02:09:17;;;;;;;31.58;15.23;;;;;;;;;;6212090;23;19989;-84
2023/01/21 02:11:42;;;;;;;32.15;15.68;;;;;;;;;;6211904;23;20005;-84
2023/01/21 02:14:09;;;;;;;54.22;19.13;;;;;;;;;;6210592;23;20001;-86
2023/01/21 02:16:49;;;;;;;44.63;18.98;;;;;;;;;;6197523;23;20009;-87
2023/01/21 02:19:40;;;;;;;47.08;18.15;;;;;;;;;;6166547;23;20005;-86
2023/01/21 02:22:27;;;;;;;35.35;15.65;;;;;;;;;;6183315;23;20012;-87
2023/01/21 02:25:23;;;;;;;33.35;16.50;;;;;;;;;;6182900;23;20005;-86
2023/01/21 02:28:24;;;;;;;32.28;15.77;;;;;;;;;;6184680;23;20009;-87
2023/01/21 02:31:11;;;;;;;32.22;15.73;;;;;;;;;;6138823;23;20433;-86
2023/01/21 02:33:59;;;;;;;34.05;16.55;;;;;;;;;;6160329;23;20009;-86
2023/01/21 02:36:42;;;;;;;35.58;17.50;;;;;;;;;;6165506;23;20433;-85
2023/01/21 02:39:11;;;;;;;33.38;16.85;;;;;;;;;;6128669;23;20009;-86
2023/01/21 02:42:02;;;;;;;34.75;16.98;;;;;;;;;;6128582;23;20001;-87
2023/01/21 02:44:31;;;;;;;;;;;;;;;;;;6128710;23;20100;-87
2023/01/21 02:47:11;;;;;;;40.50;16.10;;;;;;;;;;6128679;23;19940;-86
2023/01/21 02:49:39;;;;;;;36.33;18.65;;;;;;;;;;6128835;23;19998;-87
2023/01/21 02:52:04;;;;;;;41.47;19.33;;;;;;;;;;6129182;23;20076;-86
2023/01/21 02:54:39;;;;;;;41.35;20.33;;;;;;;;;;6142127;23;20009;-86
2023/01/21 02:57:12;;;;;;;39.83;19.85;;;;;;;;;;6155587;23;20033;-85
2023/01/21 02:59:38;;;;;;;39.25;19.75;;;;;;;;;;6129804;23;20008;-86
2023/01/21 03:02:12;;;;;;;43.50;21.70;;;;;;;;;;6103919;23;20005;-86
2023/01/21 03:05:18;;;;;;;41.95;21.05;;;;;;;;;;6154509;23;20013;-86
2023/01/21 03:08:07;;;;;;;40.83;19.98;;;;;;;;;;6153046;23;20001;-87
2023/01/21 03:10:39;;;;;;;46.67;20.90;;;;;;;;;;6128492;23;20012;-87
2023/01/21 03:16:55;;;;;;;37.50;19.17;;;;;;;;;;6132334;23;20013;-85
2023/01/21 03:18:46;;;;;;;33.17;16.95;;;;;;;;;;6141602;23;20012;-86
2023/01/21 03:21:15;;;;;;;36.60;17.65;;;;;;;;;;6166509;23;20001;-85
2023/01/21 03:23:42;;;;;;;35.90;16.77;;;;;;;;;;6138680;23;20077;-87
2023/01/21 03:26:08;;;;;;;32.88;16.67;;;;;;;;;;6140656;23;20006;-86
2023/01/21 03:28:35;;;;;;;34.65;17.38;;;;;;;;;;6115490;23;20020;-87
2023/01/21 03:31:03;;;;;;;30.67;16.35;;;;;;;;;;6175825;23;20005;-85
2023/01/21 03:33:29;;;;;;;39.05;17.55;;;;;;;;;;6198823;23;20016;-85
2023/01/21 03:35:54;;;;;;;35.80;18.63;;;;;;;;;;6193057;23;20040;-86
2023/01/21 03:38:23;;;;;;;35.95;18.23;;;;;;;;;;6167322;23;20387;-86
2023/01/21 03:40:57;;;;;;;35.97;17.95;;;;;;;;;;6163253;23;20013;-87
2023/01/21 03:43:22;;;;;;;37.42;19.10;;;;;;;;;;6204172;23;20008;-86
2023/01/21 03:46:08;;;;;;;43.88;20.10;;;;;;;;;;6164495;23;20009;-87
2023/01/21 03:48:51;;;;;;;47.00;22.38;;;;;;;;;;6157217;23;20001;-87
2023/01/21 03:51:18;;;;;;;44.05;23.20;;;;;;;;;;6158551;23;20013;-87
2023/01/21 03:53:44;;;;;;;48.75;24.50;;;;;;;;;;6155193;23;20001;-87
2023/01/21 03:56:09;;;;;;;43.50;22.33;;;;;;;;;;6192669;23;20013;-86
2023/01/21 03:58:35;;;;;;;37.33;19.33;;;;;;;;;;6157846;23;20001;-86
2023/01/21 04:01:00;;;;;;;41.58;18.92;;;;;;;;;;6158133;23;20019;-87
2023/01/21 04:03:26;;;;;;;38.13;18.27;;;;;;;;;;6184265;23;20002;-86
2023/01/21 04:05:51;;;;;;;31.15;15.48;;;;;;;;;;6185966;23;20055;-87
2023/01/21 04:08:17;;;;;;;34.80;16.95;;;;;;;;;;6185793;23;20012;-87
2023/01/21 04:10:42;;;;;;;32.15;16.27;;;;;;;;;;6184597;23;20016;-87
2023/01/21 04:13:07;;;;;;;33.72;16.55;;;;;;;;;;6197707;23;20007;-87
2023/01/21 04:15:33;;;;;;;32.65;15.88;;;;;;;;;;6191523;23;20009;-87
2023/01/21 04:17:59;;;;;;;32.03;15.98;;;;;;;;;;6159365;23;20071;-87
2023/01/21 04:20:24;;;;;;;37.15;18.25;;;;;;;;;;6186074;23;20005;-86
2023/01/21 04:22:51;;;;;;;38.45;18.40;;;;;;;;;;6186957;23;20009;-86
2023/01/21 04:25:16;;;;;;;33.60;16.60;;;;;;;;;;6188352;23;20016;-86
2023/01/21 04:27:42;;;;;;;34.30;16.95;;;;;;;;;;6196966;23;20005;-86
2023/01/21 04:30:08;;;;;;;32.25;16.85;;;;;;;;;;6193751;23;20025;-85
2023/01/21 04:32:33;;;;;;;37.90;17.27;;;;;;;;;;6207616;23;20391;-86
2023/01/21 04:34:58;;;;;;;43.13;19.13;;;;;;;;;;6203522;23;20424;-86
2023/01/21 04:37:24;;;;;;;45.40;18.60;;;;;;;;;;6209143;23;20033;-86
2023/01/21 04:39:49;;;;;;;32.97;16.15;;;;;;;;;;6209361;23;20032;-85
2023/01/21 04:42:15;;;;;;;33.53;16.30;;;;;;;;;;6213983;23;20017;-80
2023/01/21 04:44:40;;;;;;;39.15;17.65;;;;;;;;;;6213812;23;20040;-84
2023/01/21 04:47:06;;;;;;;33.13;16.50;;;;;;;;;;6208445;23;19993;-84
2023/01/21 04:49:31;;;;;;;32.05;15.68;;;;;;;;;;6209393;23;20059;-85
2023/01/21 04:51:56;;;;;;;28.55;14.38;;;;;;;;;;6210085;23;20009;-85
2023/01/21 04:54:22;;;;;;;30.73;15.48;;;;;;;;;;6192384;23;20008;-87
2023/01/21 04:56:47;;;;;;;30.05;15.98;;;;;;;;;;6186810;23;20083;-87
2023/01/21 04:59:13;;;;;;;31.92;15.90;;;;;;;;;;6186055;23;20001;-87
2023/01/21 05:01:38;;;;;;;29.35;15.35;;;;;;;;;;6134627;23;20005;-87
2023/01/21 05:04:04;;;;;;;31.30;14.98;;;;;;;;;;6183773;23;20033;-86
2023/01/21 05:06:29;;;;;;;32.53;15.98;;;;;;;;;;6184781;23;20016;-85
2023/01/21 05:08:55;;;;;;;35.67;16.48;;;;;;;;;;6185642;23;19997;-84
2023/01/21 05:11:20;;;;;;;31.05;15.65;;;;;;;;;;6197497;23;20005;-83
2023/01/21 05:13:46;;;;;;;40.80;17.55;;;;;;;;;;6162665;23;20009;-87
2023/01/21 05:16:13;;;;;;;35.50;15.27;;;;;;;;;;6183126;23;20005;-86
2023/01/21 05:18:39;;;;;;;29.65;14.55;;;;;;;;;;6159488;23;20059;-86
2023/01/21 05:21:05;;;;;;;36.20;16.67;;;;;;;;;;6159474;23;20039;-85
2023/01/21 05:23:30;;;;;;;30.45;14.48;;;;;;;;;;6183690;23;20009;-86
2023/01/21 05:25:56;;;;;;;30.38;15.13;;;;;;;;;;6185151;23;20016;-86
2023/01/21 05:28:21;;;;;;;28.15;14.85;;;;;;;;;;6185488;23;20028;-87
2023/01/21 05:30:47;;;;;;;30.63;14.80;;;;;;;;;;6194492;23;20052;-85
2023/01/21 05:33:12;;;;;;;27.55;14.05;;;;;;;;;;6191209;23;20001;-86
2023/01/21 05:35:38;;;;;;;28.52;14.18;;;;;;;;;;6185458;23;20092;-87
2023/01/21 05:38:03;;;;;;;25.73;13.85;;;;;;;;;;6187251;23;20001;-86
2023/01/21 05:40:28;;;;;;;26.08;14.10;;;;;;;;;;6187782;23;20500;-86
2023/01/21 05:42:54;;;;;;;28.77;14.70;;;;;;;;;;6187034;23;20013;-85
2023/01/21 05:45:19;;;;;;;29.17;14.18;;;;;;;;;;6185762;23;20444;-85
2023/01/21 05:47:45;;;;;;;24.33;13.75;;;;;;;;;;6187662;23;20324;-85
2023/01/21 05:50:10;;;;;;;32.75;16.85;;;;;;;;;;6188771;23;20040;-86
2023/01/21 05:52:36;;;;;;;31.73;17.27;;;;;;;;;;6189169;23;20009;-87
2023/01/21 05:55:02;;;;;;;32.70;17.58;;;;;;;;;;6185706;23;20037;-87
2023/01/21 05:57:27;;;;;;;38.05;20.80;;;;;;;;;;6183652;23;20092;-87
2023/01/21 05:59:53;;;;;;;37.42;20.60;;;;;;;;;;6183570;23;20079;-86
2023/01/21 06:02:18;;;;;;;33.78;18.63;;;;;;;;;;6183595;23;20016;-87
2023/01/21 06:04:43;;;;;;;36.13;19.42;;;;;;;;;;6184840;23;20341;-87
2023/01/21 06:07:09;;;;;;;47.53;25.27;;;;;;;;;;6183913;23;20005;-85
2023/01/21 06:09:35;;;;;;;39.63;22.08;;;;;;;;;;6189450;23;20016;-86
2023/01/21 06:12:01;;;;;;;32.25;16.67;;;;;;;;;;6192316;23;20129;-87
2023/01/21 06:14:26;;;;;;;32.22;17.23;;;;;;;;;;6183982;23;20364;-86
2023/01/21 06:16:52;;;;;;;35.42;18.20;;;;;;;;;;6183295;23;20005;-87
2023/01/21 06:19:17;;;;;;;35.65;18.33;;;;;;;;;;6183266;23;20005;-88
2023/01/21 06:21:43;;;;;;;35.33;18.73;;;;;;;;;;6185417;23;20001;-87
2023/01/21 06:24:08;;;;;;;32.63;17.88;;;;;;;;;;6183811;23;20031;-87
2023/01/21 06:26:34;;;;;;;30.40;15.63;;;;;;;;;;6184667;23;20012;-86
2023/01/21 06:28:59;;;;;;;29.83;15.30;;;;;;;;;;6162606;23;20020;-85
2023/01/21 06:31:25;;;;;;;26.50;14.98;;;;;;;;;;6144749;23;20016;-85
2023/01/21 06:33:50;;;;;;;28.42;15.15;;;;;;;;;;6158477;23;19997;-87
2023/01/21 06:36:17;;;;;;;29.80;14.20;;;;;;;;;;6184729;23;20005;-87
2023/01/21 06:38:42;;;;;;;26.10;13.98;;;;;;;;;;6185249;23;20008;-87
2023/01/21 06:41:08;;;;;;;28.60;14.85;;;;;;;;;;6182676;23;20001;-87
2023/01/21 06:43:33;;;;;;;30.05;15.90;;;;;;;;;;6185221;23;20051;-86
2023/01/21 06:45:59;;;;;;;28.73;16.02;;;;;;;;;;6185017;23;20008;-86
2023/01/21 06:48:24;;;;;;;25.45;14.50;;;;;;;;;;6186162;23;20413;-85
2023/01/21 06:50:49;;;;;;;27.13;14.73;;;;;;;;;;6197350;23;20068;-86
2023/01/21 06:53:15;;;;;;;24.00;14.13;;;;;;;;;;6183216;23;20059;-86
2023/01/21 06:55:40;;;;;;;26.73;13.93;;;;;;;;;;6184620;23;20005;-86
2023/01/21 06:58:06;;;;;;;27.77;14.32;;;;;;;;;;6184727;23;20001;-86
2023/01/21 07:00:31;;;;;;;29.60;15.07;;;;;;;;;;6184783;23;20005;-87
2023/01/21 07:02:58;;;;;;;27.23;14.45;;;;;;;;;;6185004;23;20001;-86
2023/01/21 07:05:23;;;;;;;30.50;15.60;;;;;;;;;;6188905;23;20016;-85
2023/01/21 07:07:49;;;;;;;30.95;16.17;;;;;;;;;;6169524;23;20001;-84
2023/01/21 07:10:16;;;;;;;36.53;18.60;;;;;;;;;;6161813;23;20433;-86
2023/01/21 07:12:41;;;;;;;42.17;20.95;;;;;;;;;;6159357;23;20087;-86
2023/01/21 07:15:07;;;;;;;38.72;18.40;;;;;;;;;;6185037;23;20066;-87
2023/01/21 07:17:33;;;;;;;31.33;14.88;;;;;;;;;;6185656;23;20049;-86
2023/01/21 07:19:58;;;;;;;26.77;14.82;;;;;;;;;;6182886;23;20011;-86
2023/01/21 07:22:24;;;;;;;30.95;16.15;;;;;;;;;;6184479;23;20079;-85
2023/01/21 07:24:49;;;;;;;30.90;16.42;;;;;;;;;;6183108;23;20012;-85
2023/01/21 07:27:15;;;;;;;34.67;17.50;;;;;;;;;;6195287;23;20032;-85
2023/01/21 07:29:40;;;;;;;31.05;16.90;;;;;;;;;;6184037;23;20001;-87
2023/01/21 07:32:05;;;;;;;42.63;20.85;;;;;;;;;;6204729;23;19991;-85
2023/01/21 07:34:31;;;;;;;46.38;23.75;;;;;;;;;;6196220;23;20001;-87
2023/01/21 07:36:57;;;;;;;61.58;27.63;;;;;;;;;;6185355;23;20074;-86
2023/01/21 07:39:22;;;;;;;79.45;37.45;;;;;;;;;;6185845;23;20001;-87
2023/01/21 07:41:47;;;;;;;65.75;32.28;;;;;;;;;;6187621;23;20004;-87
2023/01/21 07:44:13;;;;;;;64.85;32.47;;;;;;;;;;6187029;23;20005;-86
2023/01/21 07:46:38;;;;;;;64.88;31.83;;;;;;;;;;6201708;23;20021;-87
2023/01/21 07:49:04;;;;;;;64.95;31.30;;;;;;;;;;6187062;23;20317;-85
2023/01/21 07:51:29;;;;;;;53.40;26.88;;;;;;;;;;6186101;23;20067;-86
2023/01/21 07:53:55;;;;;;;47.92;24.35;;;;;;;;;;6160054;23;20005;-85
2023/01/21 07:56:21;;;;;;;44.22;23.08;;;;;;;;;;6184838;23;20432;-86
2023/01/21 07:58:46;;;;;;;36.17;19.70;;;;;;;;;;6185247;23;20423;-87
2023/01/21 08:01:12;;;;;;;38.03;19.70;;;;;;;;;;6186455;23;20012;-87
2023/01/21 08:03:38;;;;;;;29.33;16.70;;;;;;;;;;6185103;23;20012;-85
2023/01/21 08:06:06;;;;;;;34.15;18.00;;;;;;;;;;6196804;23;20009;-86
2023/01/21 08:08:32;;;;;;;36.92;18.15;;;;;;;;;;6185766;23;20009;-86
2023/01/21 08:10:57;;;;;;;31.60;17.08;;;;;;;;;;6187083;23;20078;-86
2023/01/21 08:13:23;;;;;;;30.85;17.67;;;;;;;;;;6188473;23;20336;-86
2023/01/21 08:15:49;;;;;;;32.35;17.25;;;;;;;;;;6178527;23;20016;-87
2023/01/21 08:18:15;;;;;;;37.20;20.65;;;;;;;;;;6193962;23;20083;-86
2023/01/21 08:20:40;;;;;;;39.85;20.67;;;;;;;;;;6182076;23;20013;-87
2023/01/21 08:23:06;;;;;;;56.42;25.27;;;;;;;;;;6183992;23;20005;-86
2023/01/21 08:25:32;;;;;;;50.90;25.67;;;;;;;;;;6170898;23;20036;-86
2023/01/21 08:27:58;;;;;;;50.65;24.92;;;;;;;;;;6186011;23;20001;-87
2023/01/21 08:30:24;;;;;;;52.40;26.50;;;;;;;;;;6160140;23;20009;-87
2023/01/21 08:32:49;;;;;;;51.40;25.13;;;;;;;;;;6198775;23;20084;-85
2023/01/21 08:35:15;;;;;;;46.60;23.67;;;;;;;;;;6207143;23;20016;-86
2023/01/21 08:37:40;;;;;;;38.80;20.08;;;;;;;;;;6206004;23;20053;-84
2023/01/21 08:40:06;;;;;;;53.42;26.35;;;;;;;;;;6209529;23;19997;-86
2023/01/21 08:42:32;;;;;;;35.22;19.60;;;;;;;;;;6212237;23;20017;-86
2023/01/21 08:44:57;;;;;;;46.08;23.73;;;;;;;;;;6213228;23;19993;-87
2023/01/21 08:47:23;;;;;;;38.38;18.92;;;;;;;;;;6213681;23;20027;-85
2023/01/21 08:49:48;;;;;;;34.42;18.42;;;;;;;;;;6191757;23;20005;-87
2023/01/21 08:52:15;;;;;;;32.92;18.23;;;;;;;;;;6194513;23;20005;-86
2023/01/21 08:54:41;;;;;;;28.50;15.80;;;;;;;;;;6198743;23;20005;-87
2023/01/21 08:57:07;;;;;;;24.10;14.40;;;;;;;;;;6188661;23;20028;-85
2023/01/21 08:59:32;;;;;;;22.27;13.60;;;;;;;;;;6182907;23;20008;-86
2023/01/21 09:01:58;;;;;;;27.73;14.82;;;;;;;;;;6183685;23;20005;-87
2023/01/21 09:04:23;;;;;;;29.00;14.18;;;;;;;;;;6191133;23;20009;-86
2023/01/21 09:06:49;;;;;;;25.17;13.88;;;;;;;;;;6187449;23;20005;-85
2023/01/21 09:09:14;;;;;;;27.83;15.38;;;;;;;;;;6185481;23;20013;-86
2023/01/21 09:11:40;;;;;;;24.60;14.02;;;;;;;;;;6184633;23;20017;-87
2023/01/21 09:14:06;;;;;;;26.48;14.57;;;;;;;;;;6182340;23;20467;-86
2023/01/21 09:16:31;;;;;;;27.00;15.60;;;;;;;;;;6185422;23;20008;-89
2023/01/21 09:18:57;;;;;;;27.63;15.13;;;;;;;;;;6188275;23;20162;-87
2023/01/21 09:21:23;;;;;;;28.10;16.23;;;;;;;;;;6198365;23;20005;-87
2023/01/21 09:23:48;;;;;;;33.42;18.25;;;;;;;;;;6204924;23;20016;-85
2023/01/21 09:26:18;;;;;;;31.38;17.02;;;;;;;;;;6212392;23;19993;-85
2023/01/21 09:28:45;;;;;;;35.83;18.55;;;;;;;;;;6205418;23;20028;-86
2023/01/21 09:31:12;;;;;;;30.58;17.40;;;;;;;;;;6195950;23;20301;-86
2023/01/21 09:33:39;;;;;;;27.30;14.10;;;;;;;;;;6201760;23;20416;-87
2023/01/21 09:36:06;;;;;;;24.13;12.50;;;;;;;;;;6193055;23;20065;-85
2023/01/21 09:38:31;;;;;;;25.73;13.07;;;;;;;;;;6196057;23;19997;-88
2023/01/21 09:41:03;;;;;;;23.90;13.27;;;;;;;;;;6204536;23;19997;-81
2023/01/21 09:43:34;;;;;;;23.15;12.75;;;;;;;;;;6212951;23;20020;-83
2023/01/21 09:45:59;;;;;;;21.15;11.55;;;;;;;;;;6177062;23;20031;-85
2023/01/21 09:48:34;;;;;;;23.73;12.95;;;;;;;;;;6168460;23;20444;-88
2023/01/21 09:51:02;;;;;;;21.25;12.05;;;;;;;;;;6161228;23;20089;-85
2023/01/21 09:53:33;;;;;;;22.40;12.50;;;;;;;;;;6186790;23;20080;-85
2023/01/21 09:56:00;;;;;;;26.60;13.32;;;;;;;;;;6162675;23;20436;-86
2023/01/21 09:58:34;;;;;;;27.30;14.55;;;;;;;;;;6187998;23;20007;-86
2023/01/21 10:01:13;;;;;;;28.15;14.90;;;;;;;;;;6166888;23;20008;-82
2023/01/21 10:04:07;;;;;;;25.90;14.27;;;;;;;;;;6202311;23;20008;-85
2023/01/21 10:06:57;;;;;;;28.55;14.57;;;;;;;;;;6196953;23;19997;-88
2023/01/21 10:09:44;;;;;;;32.28;14.90;;;;;;;;;;6170198;23;20027;-87
2023/01/21 10:12:24;;;;;;;27.05;14.60;;;;;;;;;;6183896;23;20001;-87
2023/01/21 10:15:17;;;;;;;29.40;14.98;;;;;;;;;;6185249;23;20009;-87
2023/01/21 10:17:53;;;;;;;29.60;15.77;;;;;;;;;;6183566;23;20383;-88
2023/01/21 10:20:25;;;;;;;26.25;14.27;;;;;;;;;;6188932;23;20078;-88
2023/01/21 10:23:00;;;;;;;26.73;14.40;;;;;;;;;;6168112;23;20079;-89
2023/01/21 10:25:30;;;;;;;25.50;14.27;;;;;;;;;;6183239;23;20044;-87
2023/01/21 10:27:58;;;;;;;24.80;13.50;;;;;;;;;;6183889;23;20031;-87
2023/01/21 10:30:28;;;;;;;27.85;14.32;;;;;;;;;;6159124;23;20103;-88
2023/01/21 10:32:54;;;;;;;23.42;13.45;;;;;;;;;;6158671;23;20035;-86
2023/01/21 10:35:27;;;;;;;34.80;14.43;;;;;;;;;;6184009;23;20000;-86
2023/01/21 10:38:02;;;;;;;25.95;13.32;;;;;;;;;;6159625;23;20007;-88
2023/01/21 10:40:42;;;;;;;27.48;14.52;;;;;;;;;;6145062;23;20009;-86
2023/01/21 10:43:08;;;;;;;25.40;13.80;;;;;;;;;;6188197;23;20079;-87
2023/01/21 10:45:58;;;;;;;24.02;13.25;;;;;;;;;;6185203;23;20004;-88
2023/01/21 10:48:48;;;;;;;25.70;13.32;;;;;;;;;;6163569;23;20107;-88
2023/01/21 10:51:13;;;;;;;28.23;14.30;;;;;;;;;;6183749;23;20084;-88
2023/01/21 10:54:02;;;;;;;26.00;14.32;;;;;;;;;;6184776;23;19997;-87
2023/01/21 10:56:46;;;;;;;25.60;13.50;;;;;;;;;;6160923;23;20005;-88
2023/01/21 10:59:14;;;;;;;26.45;14.80;;;;;;;;;;6187210;23;20049;-88
2023/01/21 11:01:44;;;;;;;25.98;14.23;;;;;;;;;;6147217;23;20044;-87
2023/01/21 11:04:20;;;;;;;32.17;17.13;;;;;;;;;;6183936;23;20005;-88
2023/01/21 11:06:49;;;;;;;32.22;16.67;;;;;;;;;;6184815;23;20001;-88
2023/01/21 11:09:15;;;;;;;29.43;16.07;;;;;;;;;;6160132;23;20005;-87
2023/01/21 11:11:41;;;;;;;29.15;16.10;;;;;;;;;;6185070;23;20405;-88
2023/01/21 11:14:07;;;;;;;29.35;16.67;;;;;;;;;;6192714;23;20089;-86
2023/01/21 11:16:46;;;;;;;32.15;17.40;;;;;;;;;;6210271;23;20005;-87
2023/01/21 11:19:16;;;;;;;35.28;19.08;;;;;;;;;;6147860;23;20410;-86
2023/01/21 11:22:00;;;;;;;40.45;20.35;;;;;;;;;;6195492;23;20005;-87
2023/01/21 11:24:26;;;;;;;39.33;20.00;;;;;;;;;;6164373;23;20084;-89
2023/01/21 11:26:56;;;;;;;48.47;23.33;;;;;;;;;;6201319;23;20006;-88
2023/01/21 11:29:22;;;;;;;48.33;23.50;;;;;;;;;;6195390;23;20013;-88
2023/01/21 11:31:50;;;;;;;45.70;24.15;;;;;;;;;;6209441;23;20056;-85
2023/01/21 11:34:17;;;;;;;48.97;25.08;;;;;;;;;;6212640;23;19993;-85
2023/01/21 11:36:56;;;;;;;55.20;27.30;;;;;;;;;;6211721;23;20020;-86
2023/01/21 11:39:26;;;;;;;41.42;20.98;;;;;;;;;;6210987;23;20011;-84
2023/01/21 11:41:53;;;;;;;58.47;28.23;;;;;;;;;;6180436;23;20037;-86
2023/01/21 11:44:18;;;;;;;53.50;26.70;;;;;;;;;;6170511;23;20005;-88
2023/01/21 11:46:45;;;;;;;48.40;23.42;;;;;;;;;;6186290;23;20076;-88
2023/01/21 11:49:11;;;;;;;48.10;23.83;;;;;;;;;;6184888;23;19997;-88
2023/01/21 11:51:38;;;;;;;44.00;21.77;;;;;;;;;;6185006;23;20001;-87
2023/01/21 11:54:13;;;;;;;53.83;24.63;;;;;;;;;;6183168;23;20420;-86
2023/01/21 11:56:42;;;;;;;58.90;28.33;;;;;;;;;;6183725;23;20036;-87
2023/01/21 11:59:26;;;;;;;72.15;30.67;;;;;;;;;;6195404;23;20001;-86
2023/01/21 12:02:07;;;;;;;55.13;24.42;;;;;;;;;;6184566;23;20001;-88
2023/01/21 12:04:32;;;;;;;54.10;26.63;;;;;;;;;;6158938;23;20005;-87
2023/01/21 12:06:59;;;;;;;76.88;29.88;;;;;;;;;;6158510;23;20071;-87
2023/01/21 12:09:26;;;;;;;73.07;29.23;;;;;;;;;;6182993;23;20017;-87
2023/01/21 12:12:03;;;;;;;57.10;26.13;;;;;;;;;;6158701;23;20043;-88
2023/01/21 12:14:45;;;;;;;63.63;29.75;;;;;;;;;;6184270;23;20004;-86
2023/01/21 12:17:29;;;;;;;77.38;32.10;;;;;;;;;;6192541;23;20411;-87
2023/01/21 12:20:07;;;;;;;85.95;33.35;;;;;;;;;;6193013;23;20007;-86
2023/01/21 12:22:56;;;;;;;96.80;35.78;;;;;;;;;;6184798;23;20023;-88
2023/01/21 12:25:40;;;;;;;80.82;32.40;;;;;;;;;;6184893;23;20004;-87
2023/01/21 12:28:28;;;;;;;74.53;29.30;;;;;;;;;;6184684;23;20013;-87
2023/01/21 12:31:03;;;;;;;71.90;30.33;;;;;;;;;;6185383;23;20008;-87
2023/01/21 12:33:39;;;;;;;72.13;30.95;;;;;;;;;;6186032;23;20411;-88
2023/01/21 12:36:10;;;;;;;52.28;24.73;;;;;;;;;;6135892;23;20005;-86
2023/01/21 12:38:45;;;;;;;50.17;24.55;;;;;;;;;;6147664;23;20005;-86
2023/01/21 12:41:19;;;;;;;50.63;23.92;;;;;;;;;;6163364;23;20021;-88
2023/01/21 12:43:46;;;;;;;36.28;19.23;;;;;;;;;;6159925;23;20011;-88
2023/01/21 12:46:22;;;;;;;32.08;16.52;;;;;;;;;;6160074;23;20009;-88
2023/01/21 12:48:53;;;;;;;33.22;15.85;;;;;;;;;;6159926;23;20008;-88
2023/01/21 12:51:29;;;;;;;32.90;17.10;;;;;;;;;;6165497;23;20001;-87
2023/01/21 12:53:58;;;;;;;35.58;19.48;;;;;;;;;;6159500;23;20016;-86
2023/01/21 12:56:31;;;;;;;35.95;19.80;;;;;;;;;;6160054;23;20011;-86
2023/01/21 12:59:36;;;;;;;33.20;18.00;;;;;;;;;;6199745;23;20036;-88
2023/01/21 13:02:12;;;;;;;34.92;18.23;;;;;;;;;;6186102;23;20453;-88
2023/01/21 13:04:46;;;;;;;33.45;17.65;;;;;;;;;;6184663;23;20085;-88
2023/01/21 13:07:20;;;;;;;32.90;17.92;;;;;;;;;;6184782;23;20416;-88
2023/01/21 13:09:52;;;;;;;34.40;17.35;;;;;;;;;;6185730;23;20005;-88
2023/01/21 13:12:19;;;;;;;33.75;18.10;;;;;;;;;;6160427;23;20001;-88
2023/01/21 13:14:47;;;;;;;36.78;20.10;;;;;;;;;;6135558;23;20466;-87
2023/01/21 13:17:18;;;;;;;34.92;18.50;;;;;;;;;;6163989;23;20005;-87
2023/01/21 13:19:45;;;;;;;39.65;20.63;;;;;;;;;;6194686;23;20016;-87
2023/01/21 13:22:16;;;;;;;39.05;19.95;;;;;;;;;;6186264;23;20027;-87
2023/01/21 13:25:07;;;;;;;38.00;19.08;;;;;;;;;;6185909;23;20097;-88
2023/01/21 13:27:54;;;;;;;39.88;20.75;;;;;;;;;;6183770;23;20443;-88
2023/01/21 13:30:39;;;;;;;40.60;20.77;;;;;;;;;;6182130;23;20013;-88
2023/01/21 13:33:32;;;;;;;40.60;19.65;;;;;;;;;;6184037;23;20051;-87
2023/01/21 13:36:12;;;;;;;35.88;18.90;;;;;;;;;;6186364;23;20009;-87
2023/01/21 13:38:43;;;;;;;37.78;19.35;;;;;;;;;;6195874;23;20459;-89
2023/01/21 13:41:17;;;;;;;;;;;;;;;;;;6186177;23;20079;-87
2023/01/21 13:43:57;;;;;;;41.00;19.98;;;;;;;;;;6184105;23;20563;-88
2023/01/21 13:46:35;;;;;;;43.08;21.42;;;;;;;;;;6186641;23;20005;-86
2023/01/21 13:49:31;;;;;;;47.53;24.83;;;;;;;;;;6195736;23;20060;-87
2023/01/21 13:52:22;;;;;;;37.17;19.83;;;;;;;;;;6199975;23;20008;-89
2023/01/21 13:55:00;;;;;;;38.25;20.85;;;;;;;;;;6194361;23;20006;-88
2023/01/21 13:58:01;;;;;;;43.45;21.67;;;;;;;;;;6171442;23;19997;-88
2023/01/21 14:01:00;;;;;;;46.95;23.70;;;;;;;;;;6137876;23;20005;-89
2023/01/21 14:03:49;;;;;;;39.83;20.75;;;;;;;;;;6182598;23;20001;-87
2023/01/21 14:06:28;;;;;;;92.97;39.88;;;;;;;;;;6184099;23;20016;-87
2023/01/21 14:08:57;;;;;;;103.65;41.83;;;;;;;;;;6186690;23;20055;-86
2023/01/21 14:11:49;;;;;;;50.05;25.13;;;;;;;;;;6190969;23;20401;-88
2023/01/21 14:14:50;;;;;;;48.33;24.42;;;;;;;;;;6185544;23;20005;-87
2023/01/21 14:17:50;;;;;;;51.08;25.52;;;;;;;;;;6144266;23;20076;-87
2023/01/21 14:20:25;;;;;;;45.80;22.77;;;;;;;;;;6184871;23;20012;-88
2023/01/21 14:23:28;;;;;;;44.38;23.65;;;;;;;;;;6183635;23;20333;-88
2023/01/21 14:26:03;;;;;;;49.38;21.88;;;;;;;;;;6184753;23;20005;-87
2023/01/21 14:28:47;;;;;;;46.30;25.15;;;;;;;;;;6184175;23;20016;-86
2023/01/21 14:31:24;;;;;;;46.45;24.88;;;;;;;;;;6160399;23;20005;-88
2023/01/21 14:33:53;;;;;;;42.17;23.08;;;;;;;;;;6181416;23;20386;-87
2023/01/21 14:36:45;;;;;;;46.92;24.90;;;;;;;;;;6145844;23;20009;-87
2023/01/21 14:39:31;;;;;;;43.33;23.27;;;;;;;;;;6170892;23;20009;-87
2023/01/21 14:42:01;;;;;;;40.40;20.75;;;;;;;;;;6183439;23;19997;-88